createdAt,value
2019-03-21T00:02:24.607Z,11.70
2019-03-21T00:05:06.033Z,11.70
2019-03-21T00:07:52.620Z,11.70
2019-03-21T00:11:01.978Z,11.70
2019-03-21T00:13:34.078Z,11.60
2019-03-21T00:16:03.980Z,11.60
2019-03-21T00:18:27.635Z,11.60
2019-03-21T00:20:59.254Z,11.60
2019-03-21T00:23:41.122Z,11.60
2019-03-21T00:26:24.055Z,11.60
2019-03-21T00:29:01.242Z,11.60
2019-03-21T00:31:46.035Z,11.60
2019-03-21T00:34:03.458Z,11.60
2019-03-21T00:36:30.910Z,11.60
2019-03-21T00:38:57.396Z,11.60
2019-03-21T00:41:30.230Z,11.60
2019-03-21T00:44:04.712Z,11.60
2019-03-21T00:46:50.407Z,11.60
2019-03-21T00:49:37.243Z,11.60
2019-03-21T00:52:18.610Z,11.60
2019-03-21T00:54:53.933Z,11.60
2019-03-21T00:57:25.099Z,11.60
2019-03-21T00:59:43.897Z,11.60
2019-03-21T01:04:57.907Z,11.60
2019-03-21T01:07:26.299Z,11.60
2019-03-21T01:09:50.382Z,11.50
2019-03-21T01:12:24.271Z,11.50
2019-03-21T01:15:03.897Z,11.50
2019-03-21T01:20:32.470Z,11.60
2019-03-21T01:23:12.466Z,11.50
2019-03-21T01:25:35.453Z,11.50
2019-03-21T01:27:57.181Z,11.60
2019-03-21T01:30:24.877Z,11.60
2019-03-21T01:32:42.669Z,11.50
2019-03-21T01:35:03.675Z,11.50
2019-03-21T01:37:44.635Z,11.50
2019-03-21T01:40:10.376Z,11.50
2019-03-21T01:42:44.902Z,11.50
2019-03-21T01:45:23.804Z,11.50
2019-03-21T01:48:01.475Z,11.50
2019-03-21T01:50:23.035Z,11.50
2019-03-21T01:53:17.915Z,11.50
2019-03-21T01:55:13.153Z,11.50
2019-03-21T01:58:07.023Z,11.50
2019-03-21T02:00:42.696Z,11.50
2019-03-21T02:03:30.602Z,11.50
2019-03-21T02:06:05.285Z,11.50
2019-03-21T02:08:43.656Z,11.50
2019-03-21T02:11:05.136Z,11.50
2019-03-21T02:13:32.756Z,11.40
2019-03-21T02:16:29.420Z,11.50
2019-03-21T02:18:52.925Z,11.40
2019-03-21T02:21:23.030Z,11.40
2019-03-21T02:23:49.801Z,11.40
2019-03-21T02:26:17.846Z,11.40
2019-03-21T02:28:54.953Z,11.40
2019-03-21T02:34:15.105Z,11.40
2019-03-21T02:36:52.977Z,11.40
2019-03-21T02:39:23.656Z,11.40
2019-03-21T02:42:13.764Z,11.40
2019-03-21T02:45:08.246Z,11.30
2019-03-21T02:50:48.355Z,11.30
2019-03-21T02:52:41.615Z,11.30
2019-03-21T02:55:19.704Z,11.30
2019-03-21T03:00:06.937Z,11.30
2019-03-21T03:02:50.002Z,11.30
2019-03-21T03:05:12.161Z,11.30
2019-03-21T03:07:54.267Z,11.30
2019-03-21T03:10:11.994Z,11.20
2019-03-21T03:12:58.989Z,11.20
2019-03-21T03:15:32.632Z,11.20
2019-03-21T03:21:16.849Z,11.20
2019-03-21T03:25:40.672Z,11.30
2019-03-21T03:27:52.511Z,11.20
2019-03-21T03:29:56.940Z,11.20
2019-03-21T03:32:01.281Z,11.20
2019-03-21T03:34:05.608Z,11.20
2019-03-21T03:36:10.055Z,11.20
2019-03-21T03:38:17.231Z,11.20
2019-03-21T03:40:27.960Z,11.20
2019-03-21T03:42:43.441Z,11.20
2019-03-21T03:45:08.865Z,11.20
2019-03-21T03:47:19.589Z,11.20
2019-03-21T03:49:26.145Z,11.20
2019-03-21T03:51:30.861Z,11.20
2019-03-21T03:53:38.231Z,11.20
2019-03-21T03:55:53.968Z,11.20
2019-03-21T04:01:25.542Z,11.20
2019-03-21T04:13:27.662Z,11.20
2019-03-21T04:19:44.578Z,11.10
2019-03-21T04:22:50.596Z,11.10
2019-03-21T04:25:29.593Z,11.10
2019-03-21T04:31:57.721Z,11.10
2019-03-21T04:34:40.792Z,11.10
2019-03-21T04:37:43.892Z,11.00
2019-03-21T04:40:31.209Z,11.00
2019-03-21T04:46:47.543Z,11.00
2019-03-21T04:52:49.485Z,11.00
2019-03-21T04:55:54.004Z,11.00
2019-03-21T05:17:06.118Z,11.00
2019-03-21T05:22:58.276Z,10.90
2019-03-21T05:25:50.018Z,10.90
2019-03-21T05:28:22.255Z,10.90
2019-03-21T05:31:29.177Z,10.90
2019-03-21T05:43:13.159Z,10.70
2019-03-21T05:45:17.626Z,10.70
2019-03-21T05:47:22.814Z,10.70
2019-03-21T05:49:28.208Z,10.70
2019-03-21T05:51:38.297Z,10.70
2019-03-21T05:53:43.247Z,10.70
2019-03-21T05:55:54.020Z,10.70
2019-03-21T05:57:58.833Z,10.70
2019-03-21T06:00:42.992Z,10.80
2019-03-21T06:13:52.847Z,10.80
2019-03-21T06:17:06.479Z,10.80
2019-03-21T06:20:19.434Z,10.80
2019-03-21T06:54:25.870Z,11.70
2019-03-21T07:03:03.641Z,12.30
2019-03-21T07:12:17.287Z,12.30
2019-03-21T07:20:29.201Z,12.20
2019-03-21T07:23:15.375Z,12.20
2019-03-21T07:26:02.436Z,12.40
2019-03-21T07:29:05.966Z,12.40
2019-03-21T07:38:30.744Z,12.60
2019-03-21T16:09:03.472Z,16.70
2019-03-21T16:11:21.870Z,16.70
2019-03-21T17:04:35.937Z,15.90
2019-03-21T17:10:22.970Z,15.10
2019-03-21T17:18:34.261Z,15.00
2019-03-21T17:30:49.965Z,14.50
2019-03-21T18:06:41.077Z,13.20
2019-03-21T19:04:59.482Z,11.50
2019-03-21T21:40:04.443Z,8.80
2019-03-21T21:42:40.114Z,8.80
2019-03-21T22:05:47.405Z,8.90
2019-03-21T22:08:14.413Z,8.90
2019-03-21T22:47:25.306Z,8.60
2019-03-21T23:15:24.312Z,8.40
2019-03-21T23:23:54.480Z,8.30
2019-03-21T23:45:11.415Z,8.10
